sensor_id;sensor_type;location;lat;lon;timestamp;P1;durP1;ratioP1;P2;durP2;ratioP2
4011;SDS011;2020;48.682;9.024;2022-07-17T00:00:51;4.50;;;4.30;;
4011;SDS011;2020;48.682;9.024;2022-07-17T00:03:17;4.40;;;4.00;;
4011;SDS011;2020;48.682;9.024;2022-07-17T00:05:44;3.97;;;3.80;;
4011;SDS011;2020;48.682;9.024;2022-07-17T00:08:10;3.67;;;3.57;;
4011;SDS011;2020;48.682;9.024;2022-07-17T00:10:37;4.27;;;4.07;;
4011;SDS011;2020;48.682;9.024;2022-07-17T00:13:05;6.87;;;4.80;;
4011;SDS011;2020;48.682;9.024;2022-07-17T00:15:31;4.60;;;4.40;;
4011;SDS011;2020;48.682;9.024;2022-07-17T00:17:56;3.90;;;3.60;;
4011;SDS011;2020;48.682;9.024;2022-07-17T00:20:22;3.90;;;3.60;;
4011;SDS011;2020;48.682;9.024;2022-07-17T00:22:50;3.70;;;3.60;;
4011;SDS011;2020;48.682;9.024;2022-07-17T00:25:15;4.43;;;4.10;;
4011;SDS011;2020;48.682;9.024;2022-07-17T00:27:41;4.47;;;4.17;;
4011;SDS011;2020;48.682;9.024;2022-07-17T00:30:07;3.90;;;3.80;;
4011;SDS011;2020;48.682;9.024;2022-07-17T00:32:33;4.57;;;3.93;;
4011;SDS011;2020;48.682;9.024;2022-07-17T00:34:58;3.87;;;3.77;;
4011;SDS011;2020;48.682;9.024;2022-07-17T00:37:23;5.03;;;4.63;;
4011;SDS011;2020;48.682;9.024;2022-07-17T00:39:49;3.67;;;3.47;;
4011;SDS011;2020;48.682;9.024;2022-07-17T00:42:15;4.67;;;4.37;;
4011;SDS011;2020;48.682;9.024;2022-07-17T00:44:41;3.70;;;3.60;;
4011;SDS011;2020;48.682;9.024;2022-07-17T00:47:11;4.23;;;3.90;;
4011;SDS011;2020;48.682;9.024;2022-07-17T00:49:41;4.37;;;4.17;;
4011;SDS011;2020;48.682;9.024;2022-07-17T00:52:07;4.37;;;4.07;;
4011;SDS011;2020;48.682;9.024;2022-07-17T00:54:37;3.17;;;3.13;;
4011;SDS011;2020;48.682;9.024;2022-07-17T00:57:05;4.30;;;3.80;;
4011;SDS011;2020;48.682;9.024;2022-07-17T00:59:31;4.10;;;3.60;;
4011;SDS011;2020;48.682;9.024;2022-07-17T01:01:58;4.30;;;3.97;;
4011;SDS011;2020;48.682;9.024;2022-07-17T01:04:23;5.17;;;3.80;;
4011;SDS011;2020;48.682;9.024;2022-07-17T01:06:48;4.30;;;3.90;;
4011;SDS011;2020;48.682;9.024;2022-07-17T01:09:14;3.10;;;3.10;;
4011;SDS011;2020;48.682;9.024;2022-07-17T01:11:39;3.53;;;3.33;;
4011;SDS011;2020;48.682;9.024;2022-07-17T01:14:04;3.93;;;3.83;;
4011;SDS011;2020;48.682;9.024;2022-07-17T01:16:30;6.17;;;4.50;;
4011;SDS011;2020;48.682;9.024;2022-07-17T01:18:57;4.17;;;3.97;;
4011;SDS011;2020;48.682;9.024;2022-07-17T01:21:23;9.00;;;3.63;;
4011;SDS011;2020;48.682;9.024;2022-07-17T01:23:49;3.13;;;3.00;;
4011;SDS011;2020;48.682;9.024;2022-07-17T01:26:14;4.20;;;3.90;;
4011;SDS011;2020;48.682;9.024;2022-07-17T01:28:40;3.23;;;3.20;;
4011;SDS011;2020;48.682;9.024;2022-07-17T01:31:05;4.00;;;3.80;;
4011;SDS011;2020;48.682;9.024;2022-07-17T01:33:30;5.30;;;4.27;;
4011;SDS011;2020;48.682;9.024;2022-07-17T01:35:56;4.30;;;4.00;;
4011;SDS011;2020;48.682;9.024;2022-07-17T01:38:21;4.23;;;4.07;;
4011;SDS011;2020;48.682;9.024;2022-07-17T01:40:46;4.40;;;4.20;;
4011;SDS011;2020;48.682;9.024;2022-07-17T01:43:11;4.10;;;3.90;;
4011;SDS011;2020;48.682;9.024;2022-07-17T01:45:37;4.40;;;4.20;;
4011;SDS011;2020;48.682;9.024;2022-07-17T01:48:02;4.23;;;3.93;;
4011;SDS011;2020;48.682;9.024;2022-07-17T01:50:28;5.17;;;4.00;;
4011;SDS011;2020;48.682;9.024;2022-07-17T01:52:54;4.00;;;3.87;;
4011;SDS011;2020;48.682;9.024;2022-07-17T01:55:19;3.80;;;3.70;;
4011;SDS011;2020;48.682;9.024;2022-07-17T01:57:44;4.03;;;3.80;;
4011;SDS011;2020;48.682;9.024;2022-07-17T02:00:11;4.20;;;4.10;;
4011;SDS011;2020;48.682;9.024;2022-07-17T02:02:40;3.90;;;3.80;;
4011;SDS011;2020;48.682;9.024;2022-07-17T02:05:05;3.73;;;3.63;;
4011;SDS011;2020;48.682;9.024;2022-07-17T02:07:31;3.90;;;3.80;;
4011;SDS011;2020;48.682;9.024;2022-07-17T02:09:57;4.30;;;4.20;;
4011;SDS011;2020;48.682;9.024;2022-07-17T02:12:23;4.73;;;4.33;;
4011;SDS011;2020;48.682;9.024;2022-07-17T02:14:48;4.70;;;4.30;;
4011;SDS011;2020;48.682;9.024;2022-07-17T02:17:13;4.80;;;4.40;;
4011;SDS011;2020;48.682;9.024;2022-07-17T02:19:39;4.63;;;4.30;;
4011;SDS011;2020;48.682;9.024;2022-07-17T02:22:04;4.53;;;4.33;;
4011;SDS011;2020;48.682;9.024;2022-07-17T02:24:29;4.73;;;4.50;;
4011;SDS011;2020;48.682;9.024;2022-07-17T02:26:55;4.63;;;4.33;;
4011;SDS011;2020;48.682;9.024;2022-07-17T02:29:20;4.50;;;4.20;;
4011;SDS011;2020;48.682;9.024;2022-07-17T02:31:45;4.80;;;4.47;;
4011;SDS011;2020;48.682;9.024;2022-07-17T02:34:10;4.30;;;4.10;;
4011;SDS011;2020;48.682;9.024;2022-07-17T02:36:36;4.07;;;3.97;;
4011;SDS011;2020;48.682;9.024;2022-07-17T02:39:01;4.23;;;4.13;;
4011;SDS011;2020;48.682;9.024;2022-07-17T02:41:26;4.70;;;4.50;;
4011;SDS011;2020;48.682;9.024;2022-07-17T02:43:52;4.60;;;4.40;;
4011;SDS011;2020;48.682;9.024;2022-07-17T02:46:17;4.10;;;4.00;;
4011;SDS011;2020;48.682;9.024;2022-07-17T02:48:43;5.00;;;4.70;;
4011;SDS011;2020;48.682;9.024;2022-07-17T02:51:08;4.13;;;4.03;;
4011;SDS011;2020;48.682;9.024;2022-07-17T02:53:35;5.93;;;5.33;;
4011;SDS011;2020;48.682;9.024;2022-07-17T02:56:00;4.30;;;4.20;;
4011;SDS011;2020;48.682;9.024;2022-07-17T02:58:26;4.70;;;4.60;;
4011;SDS011;2020;48.682;9.024;2022-07-17T03:00:51;4.60;;;4.40;;
4011;SDS011;2020;48.682;9.024;2022-07-17T03:03:17;4.63;;;4.43;;
4011;SDS011;2020;48.682;9.024;2022-07-17T03:05:44;4.57;;;4.40;;
4011;SDS011;2020;48.682;9.024;2022-07-17T03:08:10;5.90;;;5.30;;
4011;SDS011;2020;48.682;9.024;2022-07-17T03:10:35;5.63;;;5.40;;
4011;SDS011;2020;48.682;9.024;2022-07-17T03:13:01;4.63;;;4.40;;
4011;SDS011;2020;48.682;9.024;2022-07-17T03:15:26;5.40;;;5.10;;
4011;SDS011;2020;48.682;9.024;2022-07-17T03:17:52;5.90;;;5.40;;
4011;SDS011;2020;48.682;9.024;2022-07-17T03:20:17;5.50;;;5.20;;
4011;SDS011;2020;48.682;9.024;2022-07-17T03:22:42;5.13;;;4.90;;
4011;SDS011;2020;48.682;9.024;2022-07-17T03:25:08;5.37;;;5.10;;
4011;SDS011;2020;48.682;9.024;2022-07-17T03:27:33;5.43;;;5.13;;
4011;SDS011;2020;48.682;9.024;2022-07-17T03:29:59;5.47;;;5.17;;
4011;SDS011;2020;48.682;9.024;2022-07-17T03:32:24;5.20;;;5.00;;
4011;SDS011;2020;48.682;9.024;2022-07-17T03:34:49;5.63;;;5.40;;
4011;SDS011;2020;48.682;9.024;2022-07-17T03:37:15;5.70;;;5.30;;
4011;SDS011;2020;48.682;9.024;2022-07-17T03:39:40;5.77;;;5.47;;
4011;SDS011;2020;48.682;9.024;2022-07-17T03:42:06;5.10;;;4.87;;
4011;SDS011;2020;48.682;9.024;2022-07-17T03:44:31;6.03;;;5.73;;
4011;SDS011;2020;48.682;9.024;2022-07-17T03:46:56;6.13;;;5.70;;
4011;SDS011;2020;48.682;9.024;2022-07-17T03:49:22;6.07;;;5.27;;
4011;SDS011;2020;48.682;9.024;2022-07-17T03:51:47;6.00;;;5.50;;
4011;SDS011;2020;48.682;9.024;2022-07-17T03:54:12;5.97;;;5.47;;
4011;SDS011;2020;48.682;9.024;2022-07-17T03:56:38;5.90;;;5.47;;
4011;SDS011;2020;48.682;9.024;2022-07-17T03:59:03;5.77;;;5.47;;
4011;SDS011;2020;48.682;9.024;2022-07-17T04:01:28;6.13;;;5.57;;
4011;SDS011;2020;48.682;9.024;2022-07-17T04:03:54;4.73;;;4.53;;
4011;SDS011;2020;48.682;9.024;2022-07-17T04:06:19;6.13;;;5.73;;
4011;SDS011;2020;48.682;9.024;2022-07-17T04:08:44;5.43;;;5.20;;
4011;SDS011;2020;48.682;9.024;2022-07-17T04:11:10;6.03;;;5.30;;
4011;SDS011;2020;48.682;9.024;2022-07-17T04:13:35;6.10;;;5.60;;
4011;SDS011;2020;48.682;9.024;2022-07-17T04:16:00;5.70;;;5.50;;
4011;SDS011;2020;48.682;9.024;2022-07-17T04:18:27;6.30;;;5.90;;
4011;SDS011;2020;48.682;9.024;2022-07-17T04:21:00;5.30;;;5.10;;
4011;SDS011;2020;48.682;9.024;2022-07-17T04:23:30;5.77;;;5.37;;
4011;SDS011;2020;48.682;9.024;2022-07-17T04:25:56;5.93;;;5.60;;
4011;SDS011;2020;48.682;9.024;2022-07-17T04:28:22;6.70;;;6.30;;
4011;SDS011;2020;48.682;9.024;2022-07-17T04:30:47;6.03;;;5.53;;
4011;SDS011;2020;48.682;9.024;2022-07-17T04:33:13;5.20;;;4.77;;
4011;SDS011;2020;48.682;9.024;2022-07-17T04:35:38;5.67;;;5.27;;
4011;SDS011;2020;48.682;9.024;2022-07-17T04:38:05;7.00;;;5.53;;
4011;SDS011;2020;48.682;9.024;2022-07-17T04:40:32;6.00;;;5.70;;
4011;SDS011;2020;48.682;9.024;2022-07-17T04:42:58;5.60;;;5.30;;
4011;SDS011;2020;48.682;9.024;2022-07-17T04:45:24;6.47;;;6.07;;
4011;SDS011;2020;48.682;9.024;2022-07-17T04:47:50;5.90;;;5.60;;
4011;SDS011;2020;48.682;9.024;2022-07-17T04:50:15;6.70;;;5.30;;
4011;SDS011;2020;48.682;9.024;2022-07-17T04:52:40;5.30;;;5.10;;
4011;SDS011;2020;48.682;9.024;2022-07-17T04:55:06;4.47;;;4.27;;
4011;SDS011;2020;48.682;9.024;2022-07-17T04:57:31;5.80;;;5.50;;
4011;SDS011;2020;48.682;9.024;2022-07-17T04:59:57;5.63;;;5.40;;
4011;SDS011;2020;48.682;9.024;2022-07-17T05:02:22;5.67;;;5.27;;
4011;SDS011;2020;48.682;9.024;2022-07-17T05:04:48;6.13;;;5.60;;
4011;SDS011;2020;48.682;9.024;2022-07-17T05:07:13;5.87;;;5.57;;
4011;SDS011;2020;48.682;9.024;2022-07-17T05:09:39;8.47;;;6.73;;
4011;SDS011;2020;48.682;9.024;2022-07-17T05:12:04;6.60;;;6.10;;
4011;SDS011;2020;48.682;9.024;2022-07-17T05:14:30;7.00;;;6.50;;
4011;SDS011;2020;48.682;9.024;2022-07-17T05:16:55;6.63;;;6.20;;
4011;SDS011;2020;48.682;9.024;2022-07-17T05:19:21;6.80;;;6.50;;
4011;SDS011;2020;48.682;9.024;2022-07-17T05:21:48;6.30;;;6.00;;
4011;SDS011;2020;48.682;9.024;2022-07-17T05:24:13;5.80;;;5.43;;
4011;SDS011;2020;48.682;9.024;2022-07-17T05:26:38;6.57;;;6.17;;
4011;SDS011;2020;48.682;9.024;2022-07-17T05:29:04;6.50;;;6.10;;
4011;SDS011;2020;48.682;9.024;2022-07-17T05:31:29;7.30;;;6.90;;
4011;SDS011;2020;48.682;9.024;2022-07-17T05:33:54;8.50;;;7.77;;
4011;SDS011;2020;48.682;9.024;2022-07-17T05:36:19;7.20;;;6.60;;
4011;SDS011;2020;48.682;9.024;2022-07-17T05:38:45;6.87;;;6.27;;
4011;SDS011;2020;48.682;9.024;2022-07-17T05:41:10;6.57;;;6.20;;
4011;SDS011;2020;48.682;9.024;2022-07-17T05:43:35;7.00;;;6.50;;
4011;SDS011;2020;48.682;9.024;2022-07-17T05:46:00;6.93;;;6.40;;
4011;SDS011;2020;48.682;9.024;2022-07-17T05:48:26;6.63;;;6.10;;
4011;SDS011;2020;48.682;9.024;2022-07-17T05:50:52;6.00;;;5.77;;
4011;SDS011;2020;48.682;9.024;2022-07-17T05:53:17;6.00;;;5.60;;
4011;SDS011;2020;48.682;9.024;2022-07-17T05:55:43;6.10;;;5.70;;
4011;SDS011;2020;48.682;9.024;2022-07-17T05:58:08;7.10;;;6.50;;
4011;SDS011;2020;48.682;9.024;2022-07-17T06:00:34;10.60;;;6.90;;
4011;SDS011;2020;48.682;9.024;2022-07-17T06:03:00;5.90;;;5.60;;
4011;SDS011;2020;48.682;9.024;2022-07-17T06:05:25;7.00;;;6.50;;
4011;SDS011;2020;48.682;9.024;2022-07-17T06:07:51;5.87;;;5.47;;
4011;SDS011;2020;48.682;9.024;2022-07-17T06:10:17;7.60;;;5.10;;
4011;SDS011;2020;48.682;9.024;2022-07-17T06:12:42;5.90;;;5.50;;
4011;SDS011;2020;48.682;9.024;2022-07-17T06:15:08;8.03;;;7.03;;
4011;SDS011;2020;48.682;9.024;2022-07-17T06:17:34;5.70;;;5.20;;
4011;SDS011;2020;48.682;9.024;2022-07-17T06:19:59;5.60;;;5.30;;
4011;SDS011;2020;48.682;9.024;2022-07-17T06:22:25;6.03;;;5.43;;
4011;SDS011;2020;48.682;9.024;2022-07-17T06:24:50;6.70;;;6.30;;
4011;SDS011;2020;48.682;9.024;2022-07-17T06:27:15;5.07;;;4.77;;
4011;SDS011;2020;48.682;9.024;2022-07-17T06:29:40;5.63;;;5.33;;
4011;SDS011;2020;48.682;9.024;2022-07-17T06:32:06;4.90;;;4.70;;
4011;SDS011;2020;48.682;9.024;2022-07-17T06:34:31;5.03;;;4.83;;
4011;SDS011;2020;48.682;9.024;2022-07-17T06:36:56;4.63;;;4.40;;
4011;SDS011;2020;48.682;9.024;2022-07-17T06:39:22;5.03;;;4.30;;
4011;SDS011;2020;48.682;9.024;2022-07-17T06:41:47;5.20;;;4.80;;
4011;SDS011;2020;48.682;9.024;2022-07-17T06:44:12;4.23;;;4.03;;
4011;SDS011;2020;48.682;9.024;2022-07-17T06:46:37;7.57;;;7.20;;
4011;SDS011;2020;48.682;9.024;2022-07-17T06:49:03;4.80;;;4.50;;
4011;SDS011;2020;48.682;9.024;2022-07-17T06:51:28;4.63;;;4.40;;
4011;SDS011;2020;48.682;9.024;2022-07-17T06:53:53;5.17;;;4.77;;
4011;SDS011;2020;48.682;9.024;2022-07-17T06:56:19;4.20;;;4.10;;
4011;SDS011;2020;48.682;9.024;2022-07-17T06:58:44;5.20;;;4.80;;
4011;SDS011;2020;48.682;9.024;2022-07-17T07:01:09;4.40;;;4.20;;
4011;SDS011;2020;48.682;9.024;2022-07-17T07:03:34;4.47;;;4.27;;
4011;SDS011;2020;48.682;9.024;2022-07-17T07:06:00;4.53;;;4.43;;
4011;SDS011;2020;48.682;9.024;2022-07-17T07:08:26;4.70;;;4.50;;
4011;SDS011;2020;48.682;9.024;2022-07-17T07:10:51;4.40;;;4.20;;
4011;SDS011;2020;48.682;9.024;2022-07-17T07:13:17;3.70;;;3.60;;
4011;SDS011;2020;48.682;9.024;2022-07-17T07:15:42;4.40;;;4.10;;
4011;SDS011;2020;48.682;9.024;2022-07-17T07:18:08;4.37;;;4.20;;
4011;SDS011;2020;48.682;9.024;2022-07-17T07:20:33;4.13;;;3.93;;
4011;SDS011;2020;48.682;9.024;2022-07-17T07:22:59;4.30;;;4.20;;
4011;SDS011;2020;48.682;9.024;2022-07-17T07:25:24;4.27;;;4.07;;
4011;SDS011;2020;48.682;9.024;2022-07-17T07:27:49;4.43;;;4.13;;
4011;SDS011;2020;48.682;9.024;2022-07-17T07:30:15;3.47;;;3.23;;
4011;SDS011;2020;48.682;9.024;2022-07-17T07:32:40;3.00;;;3.00;;
4011;SDS011;2020;48.682;9.024;2022-07-17T07:35:06;2.83;;;2.73;;
4011;SDS011;2020;48.682;9.024;2022-07-17T07:37:32;2.87;;;2.70;;
4011;SDS011;2020;48.682;9.024;2022-07-17T07:39:58;4.97;;;2.73;;
4011;SDS011;2020;48.682;9.024;2022-07-17T07:42:24;2.90;;;2.80;;
4011;SDS011;2020;48.682;9.024;2022-07-17T07:44:49;3.70;;;3.40;;
4011;SDS011;2020;48.682;9.024;2022-07-17T07:47:14;2.90;;;2.70;;
4011;SDS011;2020;48.682;9.024;2022-07-17T07:49:40;2.30;;;2.30;;
4011;SDS011;2020;48.682;9.024;2022-07-17T07:52:05;3.00;;;2.90;;
4011;SDS011;2020;48.682;9.024;2022-07-17T07:54:31;3.00;;;2.90;;
4011;SDS011;2020;48.682;9.024;2022-07-17T07:56:56;3.53;;;3.33;;
4011;SDS011;2020;48.682;9.024;2022-07-17T07:59:21;2.67;;;2.60;;
4011;SDS011;2020;48.682;9.024;2022-07-17T08:01:47;2.83;;;2.73;;
4011;SDS011;2020;48.682;9.024;2022-07-17T08:04:12;7.80;;;3.00;;
4011;SDS011;2020;48.682;9.024;2022-07-17T08:06:37;2.67;;;2.57;;
4011;SDS011;2020;48.682;9.024;2022-07-17T08:09:03;2.53;;;2.40;;
4011;SDS011;2020;48.682;9.024;2022-07-17T08:11:29;3.20;;;3.00;;
4011;SDS011;2020;48.682;9.024;2022-07-17T08:13:54;3.40;;;3.23;;
4011;SDS011;2020;48.682;9.024;2022-07-17T08:16:19;2.73;;;2.73;;
4011;SDS011;2020;48.682;9.024;2022-07-17T08:18:45;3.43;;;3.20;;
4011;SDS011;2020;48.682;9.024;2022-07-17T08:21:10;3.47;;;3.30;;
4011;SDS011;2020;48.682;9.024;2022-07-17T08:23:35;3.63;;;3.43;;
4011;SDS011;2020;48.682;9.024;2022-07-17T08:26:01;2.70;;;2.60;;
4011;SDS011;2020;48.682;9.024;2022-07-17T08:28:27;2.90;;;2.80;;
4011;SDS011;2020;48.682;9.024;2022-07-17T08:30:52;3.10;;;3.00;;
4011;SDS011;2020;48.682;9.024;2022-07-17T08:33:17;3.30;;;3.20;;
4011;SDS011;2020;48.682;9.024;2022-07-17T08:35:43;3.23;;;3.13;;
4011;SDS011;2020;48.682;9.024;2022-07-17T08:38:08;3.40;;;3.10;;
4011;SDS011;2020;48.682;9.024;2022-07-17T08:40:35;2.50;;;2.50;;
4011;SDS011;2020;48.682;9.024;2022-07-17T08:43:03;3.17;;;3.07;;
4011;SDS011;2020;48.682;9.024;2022-07-17T08:45:29;3.13;;;3.03;;
4011;SDS011;2020;48.682;9.024;2022-07-17T08:47:55;3.17;;;2.97;;
4011;SDS011;2020;48.682;9.024;2022-07-17T08:50:26;2.87;;;2.77;;
4011;SDS011;2020;48.682;9.024;2022-07-17T08:52:55;3.00;;;2.90;;
4011;SDS011;2020;48.682;9.024;2022-07-17T08:55:20;2.80;;;2.70;;
4011;SDS011;2020;48.682;9.024;2022-07-17T08:57:46;3.20;;;3.00;;
4011;SDS011;2020;48.682;9.024;2022-07-17T09:00:13;3.30;;;3.20;;
4011;SDS011;2020;48.682;9.024;2022-07-17T09:02:51;7.03;;;3.00;;
4011;SDS011;2020;48.682;9.024;2022-07-17T09:05:26;2.37;;;2.37;;
4011;SDS011;2020;48.682;9.024;2022-07-17T09:07:54;2.93;;;2.73;;
4011;SDS011;2020;48.682;9.024;2022-07-17T09:10:29;3.20;;;3.20;;
4011;SDS011;2020;48.682;9.024;2022-07-17T09:12:58;3.00;;;2.90;;
4011;SDS011;2020;48.682;9.024;2022-07-17T09:15:25;2.97;;;2.90;;
4011;SDS011;2020;48.682;9.024;2022-07-17T09:17:51;3.30;;;3.20;;
4011;SDS011;2020;48.682;9.024;2022-07-17T09:20:18;3.03;;;2.93;;
4011;SDS011;2020;48.682;9.024;2022-07-17T09:22:55;3.20;;;3.00;;
4011;SDS011;2020;48.682;9.024;2022-07-17T09:25:31;3.03;;;2.87;;
4011;SDS011;2020;48.682;9.024;2022-07-17T09:28:16;3.37;;;3.27;;
4011;SDS011;2020;48.682;9.024;2022-07-17T09:30:45;2.50;;;2.40;;
4011;SDS011;2020;48.682;9.024;2022-07-17T09:33:22;2.73;;;2.63;;
4011;SDS011;2020;48.682;9.024;2022-07-17T09:35:50;2.60;;;2.50;;
4011;SDS011;2020;48.682;9.024;2022-07-17T09:38:31;2.77;;;2.67;;
4011;SDS011;2020;48.682;9.024;2022-07-17T09:41:04;2.73;;;2.63;;
4011;SDS011;2020;48.682;9.024;2022-07-17T09:44:07;2.97;;;2.87;;
4011;SDS011;2020;48.682;9.024;2022-07-17T09:48:59;2.70;;;2.57;;
4011;SDS011;2020;48.682;9.024;2022-07-17T09:51:35;2.80;;;2.70;;
4011;SDS011;2020;48.682;9.024;2022-07-17T09:54:04;2.57;;;2.47;;
4011;SDS011;2020;48.682;9.024;2022-07-17T09:56:31;2.63;;;2.53;;
4011;SDS011;2020;48.682;9.024;2022-07-17T10:01:30;2.60;;;2.60;;
4011;SDS011;2020;48.682;9.024;2022-07-17T10:03:56;2.87;;;2.60;;
4011;SDS011;2020;48.682;9.024;2022-07-17T10:06:23;3.53;;;2.80;;
4011;SDS011;2020;48.682;9.024;2022-07-17T10:08:50;2.97;;;2.77;;
4011;SDS011;2020;48.682;9.024;2022-07-17T10:11:17;3.23;;;3.00;;
4011;SDS011;2020;48.682;9.024;2022-07-17T10:13:45;2.63;;;2.57;;
4011;SDS011;2020;48.682;9.024;2022-07-17T10:16:11;3.00;;;2.93;;
4011;SDS011;2020;48.682;9.024;2022-07-17T10:18:39;2.37;;;2.17;;
4011;SDS011;2020;48.682;9.024;2022-07-17T10:21:16;2.33;;;2.33;;
4011;SDS011;2020;48.682;9.024;2022-07-17T10:23:46;3.00;;;2.90;;
4011;SDS011;2020;48.682;9.024;2022-07-17T10:29:01;2.50;;;2.40;;
4011;SDS011;2020;48.682;9.024;2022-07-17T10:31:28;3.00;;;2.30;;
4011;SDS011;2020;48.682;9.024;2022-07-17T10:34:00;2.60;;;2.50;;
4011;SDS011;2020;48.682;9.024;2022-07-17T10:41:42;2.50;;;2.50;;
4011;SDS011;2020;48.682;9.024;2022-07-17T10:44:08;2.10;;;2.00;;
4011;SDS011;2020;48.682;9.024;2022-07-17T10:46:34;2.53;;;2.47;;
4011;SDS011;2020;48.682;9.024;2022-07-17T10:49:01;1.83;;;1.83;;
4011;SDS011;2020;48.682;9.024;2022-07-17T10:51:28;2.57;;;2.40;;
4011;SDS011;2020;48.682;9.024;2022-07-17T10:53:58;2.03;;;2.03;;
4011;SDS011;2020;48.682;9.024;2022-07-17T10:56:24;2.73;;;2.63;;
4011;SDS011;2020;48.682;9.024;2022-07-17T10:58:50;1.90;;;1.80;;
4011;SDS011;2020;48.682;9.024;2022-07-17T11:01:18;1.83;;;1.73;;
4011;SDS011;2020;48.682;9.024;2022-07-17T11:03:48;2.07;;;1.97;;
4011;SDS011;2020;48.682;9.024;2022-07-17T11:06:16;1.83;;;1.80;;
4011;SDS011;2020;48.682;9.024;2022-07-17T11:08:44;8.03;;;2.67;;
4011;SDS011;2020;48.682;9.024;2022-07-17T11:11:10;2.13;;;2.03;;
4011;SDS011;2020;48.682;9.024;2022-07-17T11:13:36;2.00;;;2.00;;
4011;SDS011;2020;48.682;9.024;2022-07-17T11:16:01;2.37;;;2.37;;
4011;SDS011;2020;48.682;9.024;2022-07-17T11:18:26;2.50;;;1.90;;
4011;SDS011;2020;48.682;9.024;2022-07-17T11:20:53;2.27;;;2.10;;
4011;SDS011;2020;48.682;9.024;2022-07-17T11:23:20;4.00;;;1.83;;
4011;SDS011;2020;48.682;9.024;2022-07-17T11:25:58;2.37;;;2.37;;
4011;SDS011;2020;48.682;9.024;2022-07-17T11:28:30;2.20;;;2.20;;
4011;SDS011;2020;48.682;9.024;2022-07-17T11:30:58;1.63;;;1.63;;
4011;SDS011;2020;48.682;9.024;2022-07-17T11:33:25;1.73;;;1.73;;
4011;SDS011;2020;48.682;9.024;2022-07-17T11:35:51;2.03;;;1.93;;
4011;SDS011;2020;48.682;9.024;2022-07-17T11:38:23;1.77;;;1.77;;
4011;SDS011;2020;48.682;9.024;2022-07-17T11:40:50;2.10;;;2.00;;
4011;SDS011;2020;48.682;9.024;2022-07-17T11:43:15;2.70;;;2.07;;
4011;SDS011;2020;48.682;9.024;2022-07-17T11:45:41;2.10;;;2.10;;
4011;SDS011;2020;48.682;9.024;2022-07-17T11:48:08;2.10;;;2.10;;
4011;SDS011;2020;48.682;9.024;2022-07-17T11:50:33;1.97;;;1.87;;
4011;SDS011;2020;48.682;9.024;2022-07-17T11:53:05;2.87;;;2.80;;
4011;SDS011;2020;48.682;9.024;2022-07-17T11:55:35;2.50;;;2.40;;
4011;SDS011;2020;48.682;9.024;2022-07-17T11:58:02;2.37;;;2.37;;
4011;SDS011;2020;48.682;9.024;2022-07-17T12:00:27;2.73;;;2.03;;
4011;SDS011;2020;48.682;9.024;2022-07-17T12:03:03;1.97;;;1.97;;
4011;SDS011;2020;48.682;9.024;2022-07-17T12:05:31;2.17;;;2.07;;
4011;SDS011;2020;48.682;9.024;2022-07-17T12:07:57;2.00;;;1.90;;
4011;SDS011;2020;48.682;9.024;2022-07-17T12:10:24;1.40;;;1.40;;
4011;SDS011;2020;48.682;9.024;2022-07-17T12:13:01;1.50;;;1.50;;
4011;SDS011;2020;48.682;9.024;2022-07-17T12:15:46;2.90;;;1.67;;
4011;SDS011;2020;48.682;9.024;2022-07-17T12:18:54;2.00;;;2.00;;
4011;SDS011;2020;48.682;9.024;2022-07-17T12:21:05;1.80;;;1.80;;
4011;SDS011;2020;48.682;9.024;2022-07-17T12:23:33;1.90;;;1.90;;
4011;SDS011;2020;48.682;9.024;2022-07-17T12:26:06;2.03;;;2.03;;
4011;SDS011;2020;48.682;9.024;2022-07-17T12:28:32;1.67;;;1.57;;
4011;SDS011;2020;48.682;9.024;2022-07-17T12:30:58;2.10;;;1.90;;
4011;SDS011;2020;48.682;9.024;2022-07-17T12:33:23;1.93;;;1.93;;
4011;SDS011;2020;48.682;9.024;2022-07-17T12:35:48;1.60;;;1.60;;
4011;SDS011;2020;48.682;9.024;2022-07-17T12:38:14;3.03;;;2.40;;
4011;SDS011;2020;48.682;9.024;2022-07-17T12:40:39;2.00;;;1.90;;
4011;SDS011;2020;48.682;9.024;2022-07-17T12:43:05;1.80;;;1.80;;
4011;SDS011;2020;48.682;9.024;2022-07-17T12:45:31;6.57;;;1.97;;
4011;SDS011;2020;48.682;9.024;2022-07-17T12:47:56;1.97;;;1.93;;
4011;SDS011;2020;48.682;9.024;2022-07-17T12:50:21;2.20;;;1.70;;
4011;SDS011;2020;48.682;9.024;2022-07-17T12:52:46;5.10;;;4.80;;
4011;SDS011;2020;48.682;9.024;2022-07-17T12:55:12;1.87;;;1.87;;
4011;SDS011;2020;48.682;9.024;2022-07-17T12:57:37;1.53;;;1.53;;
4011;SDS011;2020;48.682;9.024;2022-07-17T13:00:03;1.70;;;1.70;;
4011;SDS011;2020;48.682;9.024;2022-07-17T13:02:29;1.80;;;1.80;;
4011;SDS011;2020;48.682;9.024;2022-07-17T13:04:54;1.97;;;1.97;;
4011;SDS011;2020;48.682;9.024;2022-07-17T13:07:19;2.27;;;2.13;;
4011;SDS011;2020;48.682;9.024;2022-07-17T13:09:44;2.10;;;2.00;;
4011;SDS011;2020;48.682;9.024;2022-07-17T13:12:10;1.80;;;1.70;;
4011;SDS011;2020;48.682;9.024;2022-07-17T13:14:35;1.70;;;1.60;;
4011;SDS011;2020;48.682;9.024;2022-07-17T13:17:00;2.03;;;1.93;;
4011;SDS011;2020;48.682;9.024;2022-07-17T13:19:26;1.90;;;1.90;;
4011;SDS011;2020;48.682;9.024;2022-07-17T13:21:51;1.70;;;1.70;;
4011;SDS011;2020;48.682;9.024;2022-07-17T13:24:16;1.80;;;1.80;;
4011;SDS011;2020;48.682;9.024;2022-07-17T13:26:42;1.97;;;1.87;;
4011;SDS011;2020;48.682;9.024;2022-07-17T13:29:07;2.17;;;2.17;;
4011;SDS011;2020;48.682;9.024;2022-07-17T13:31:32;2.10;;;2.00;;
4011;SDS011;2020;48.682;9.024;2022-07-17T13:33:57;2.07;;;2.07;;
4011;SDS011;2020;48.682;9.024;2022-07-17T13:36:23;2.20;;;2.10;;
4011;SDS011;2020;48.682;9.024;2022-07-17T13:38:48;1.63;;;1.63;;
4011;SDS011;2020;48.682;9.024;2022-07-17T13:41:13;2.20;;;2.00;;
4011;SDS011;2020;48.682;9.024;2022-07-17T13:43:39;1.80;;;1.80;;
4011;SDS011;2020;48.682;9.024;2022-07-17T13:46:04;2.13;;;1.90;;
4011;SDS011;2020;48.682;9.024;2022-07-17T13:48:30;1.70;;;1.60;;
4011;SDS011;2020;48.682;9.024;2022-07-17T13:50:55;2.20;;;2.10;;
4011;SDS011;2020;48.682;9.024;2022-07-17T13:53:20;1.80;;;1.80;;
4011;SDS011;2020;48.682;9.024;2022-07-17T13:55:46;2.00;;;2.00;;
4011;SDS011;2020;48.682;9.024;2022-07-17T13:58:11;1.63;;;1.63;;
4011;SDS011;2020;48.682;9.024;2022-07-17T14:00:37;1.90;;;1.90;;
4011;SDS011;2020;48.682;9.024;2022-07-17T14:03:03;2.20;;;2.20;;
4011;SDS011;2020;48.682;9.024;2022-07-17T14:05:28;1.90;;;1.80;;
4011;SDS011;2020;48.682;9.024;2022-07-17T14:07:54;2.40;;;2.30;;
4011;SDS011;2020;48.682;9.024;2022-07-17T14:10:19;2.00;;;2.00;;
4011;SDS011;2020;48.682;9.024;2022-07-17T14:12:44;2.17;;;2.17;;
4011;SDS011;2020;48.682;9.024;2022-07-17T14:15:10;2.07;;;2.07;;
4011;SDS011;2020;48.682;9.024;2022-07-17T14:17:36;2.10;;;2.00;;
4011;SDS011;2020;48.682;9.024;2022-07-17T14:20:02;2.20;;;2.10;;
4011;SDS011;2020;48.682;9.024;2022-07-17T14:22:28;2.00;;;1.90;;
4011;SDS011;2020;48.682;9.024;2022-07-17T14:24:53;2.00;;;2.00;;
4011;SDS011;2020;48.682;9.024;2022-07-17T14:27:19;1.87;;;1.87;;
4011;SDS011;2020;48.682;9.024;2022-07-17T14:29:44;2.33;;;2.23;;
4011;SDS011;2020;48.682;9.024;2022-07-17T14:32:10;2.17;;;2.07;;
4011;SDS011;2020;48.682;9.024;2022-07-17T14:34:35;1.60;;;1.60;;
4011;SDS011;2020;48.682;9.024;2022-07-17T14:37:00;1.80;;;1.70;;
4011;SDS011;2020;48.682;9.024;2022-07-17T14:39:28;4.50;;;1.70;;
4011;SDS011;2020;48.682;9.024;2022-07-17T14:41:53;2.30;;;2.20;;
4011;SDS011;2020;48.682;9.024;2022-07-17T14:44:19;2.00;;;1.90;;
4011;SDS011;2020;48.682;9.024;2022-07-17T14:46:44;2.17;;;2.10;;
4011;SDS011;2020;48.682;9.024;2022-07-17T14:49:10;1.80;;;1.70;;
4011;SDS011;2020;48.682;9.024;2022-07-17T14:51:35;2.03;;;1.93;;
4011;SDS011;2020;48.682;9.024;2022-07-17T14:54:00;2.50;;;2.50;;
4011;SDS011;2020;48.682;9.024;2022-07-17T14:56:26;1.70;;;1.70;;
4011;SDS011;2020;48.682;9.024;2022-07-17T14:58:51;1.90;;;1.90;;
4011;SDS011;2020;48.682;9.024;2022-07-17T15:01:16;2.20;;;2.20;;
4011;SDS011;2020;48.682;9.024;2022-07-17T15:03:42;1.90;;;1.80;;
4011;SDS011;2020;48.682;9.024;2022-07-17T15:06:07;2.27;;;2.27;;
4011;SDS011;2020;48.682;9.024;2022-07-17T15:08:32;1.83;;;1.73;;
4011;SDS011;2020;48.682;9.024;2022-07-17T15:10:57;2.20;;;2.20;;
4011;SDS011;2020;48.682;9.024;2022-07-17T15:13:23;2.70;;;1.93;;
4011;SDS011;2020;48.682;9.024;2022-07-17T15:15:49;2.10;;;2.00;;
4011;SDS011;2020;48.682;9.024;2022-07-17T15:18:14;2.10;;;2.00;;
4011;SDS011;2020;48.682;9.024;2022-07-17T15:20:39;1.90;;;1.70;;
4011;SDS011;2020;48.682;9.024;2022-07-17T15:23:05;1.90;;;1.90;;